Terminal Aerodrome Forecast
Issued by NWS Corpus Christi, TX

Home | Current Version | Previous Version | Text Only | Print | Product List | Glossary On
Versions: 1 2 3 4 5 6 7 8 9 10 11 12 13 14 15 16
000
FTUS44 KCRP 062328
TAFVCT
TAF
KVCT 062328Z 0700/0724 15015KT P6SM BKN050
     FM070200 13012KT P6SM BKN025
     FM070600 13008KT P6SM OVC012
     FM071500 15015G22KT P6SM OVC025
     FM071900 15015G22KT P6SM OVC035=

USA.gov is the U.S. government's official web portal to all federal, state and local government web resources and services.